sensor_id;sensor_type;location;lat;lon;timestamp;P1;durP1;ratioP1;P2;durP2;ratioP2
63778;SDS011;49923;55.970;37.516;2022-07-09T00:01:42;19.85;;;11.90;;
63778;SDS011;49923;55.970;37.516;2022-07-09T00:04:08;17.92;;;11.05;;
63778;SDS011;49923;55.970;37.516;2022-07-09T00:06:34;18.48;;;10.88;;
63778;SDS011;49923;55.970;37.516;2022-07-09T00:09:00;19.10;;;11.65;;
63778;SDS011;49923;55.970;37.516;2022-07-09T00:11:26;16.70;;;11.98;;
63778;SDS011;49923;55.970;37.516;2022-07-09T00:13:52;18.15;;;12.05;;
63778;SDS011;49923;55.970;37.516;2022-07-09T00:16:18;16.92;;;12.55;;
63778;SDS011;49923;55.970;37.516;2022-07-09T00:18:44;19.85;;;12.20;;
63778;SDS011;49923;55.970;37.516;2022-07-09T00:21:10;19.60;;;11.80;;
63778;SDS011;49923;55.970;37.516;2022-07-09T00:23:35;16.25;;;12.10;;
63778;SDS011;49923;55.970;37.516;2022-07-09T00:26:02;18.80;;;12.05;;
63778;SDS011;49923;55.970;37.516;2022-07-09T00:28:28;22.25;;;12.50;;
63778;SDS011;49923;55.970;37.516;2022-07-09T00:30:54;15.02;;;12.02;;
63778;SDS011;49923;55.970;37.516;2022-07-09T00:33:19;18.60;;;12.55;;
63778;SDS011;49923;55.970;37.516;2022-07-09T00:35:45;17.58;;;12.25;;
63778;SDS011;49923;55.970;37.516;2022-07-09T00:38:12;15.93;;;11.75;;
63778;SDS011;49923;55.970;37.516;2022-07-09T00:40:38;17.67;;;12.60;;
63778;SDS011;49923;55.970;37.516;2022-07-09T00:43:14;17.23;;;12.32;;
63778;SDS011;49923;55.970;37.516;2022-07-09T00:45:47;19.10;;;11.40;;
63778;SDS011;49923;55.970;37.516;2022-07-09T00:48:14;16.80;;;10.40;;
63778;SDS011;49923;55.970;37.516;2022-07-09T00:50:41;17.50;;;11.50;;
63778;SDS011;49923;55.970;37.516;2022-07-09T00:53:17;18.70;;;11.45;;
63778;SDS011;49923;55.970;37.516;2022-07-09T00:55:48;17.98;;;11.63;;
63778;SDS011;49923;55.970;37.516;2022-07-09T00:58:15;16.52;;;11.35;;
63778;SDS011;49923;55.970;37.516;2022-07-09T01:00:43;19.88;;;12.07;;
63778;SDS011;49923;55.970;37.516;2022-07-09T01:03:09;19.08;;;11.27;;
63778;SDS011;49923;55.970;37.516;2022-07-09T01:05:35;20.45;;;12.07;;
63778;SDS011;49923;55.970;37.516;2022-07-09T01:08:04;15.98;;;11.63;;
63778;SDS011;49923;55.970;37.516;2022-07-09T01:10:31;17.50;;;12.15;;
63778;SDS011;49923;55.970;37.516;2022-07-09T01:12:58;19.08;;;11.98;;
63778;SDS011;49923;55.970;37.516;2022-07-09T01:15:25;24.13;;;12.73;;
63778;SDS011;49923;55.970;37.516;2022-07-09T01:17:51;18.25;;;12.20;;
63778;SDS011;49923;55.970;37.516;2022-07-09T01:20:21;16.75;;;11.45;;
63778;SDS011;49923;55.970;37.516;2022-07-09T01:22:49;19.23;;;11.85;;
63778;SDS011;49923;55.970;37.516;2022-07-09T01:25:16;19.38;;;12.05;;
63778;SDS011;49923;55.970;37.516;2022-07-09T01:27:42;21.48;;;12.38;;
63778;SDS011;49923;55.970;37.516;2022-07-09T01:30:09;17.00;;;12.13;;
63778;SDS011;49923;55.970;37.516;2022-07-09T01:32:35;23.88;;;12.57;;
63778;SDS011;49923;55.970;37.516;2022-07-09T01:35:01;16.13;;;11.55;;
63778;SDS011;49923;55.970;37.516;2022-07-09T01:37:27;20.10;;;12.10;;
63778;SDS011;49923;55.970;37.516;2022-07-09T01:39:53;16.90;;;12.38;;
63778;SDS011;49923;55.970;37.516;2022-07-09T01:42:19;21.40;;;12.90;;
63778;SDS011;49923;55.970;37.516;2022-07-09T01:44:46;20.92;;;12.32;;
63778;SDS011;49923;55.970;37.516;2022-07-09T01:47:13;18.58;;;12.82;;
63778;SDS011;49923;55.970;37.516;2022-07-09T01:49:42;20.33;;;12.48;;
63778;SDS011;49923;55.970;37.516;2022-07-09T01:52:08;20.00;;;13.13;;
63778;SDS011;49923;55.970;37.516;2022-07-09T01:54:35;18.08;;;12.90;;
63778;SDS011;49923;55.970;37.516;2022-07-09T01:57:01;21.00;;;12.98;;
63778;SDS011;49923;55.970;37.516;2022-07-09T01:59:26;17.52;;;12.48;;
63778;SDS011;49923;55.970;37.516;2022-07-09T02:01:52;19.83;;;13.27;;
63778;SDS011;49923;55.970;37.516;2022-07-09T02:04:19;18.88;;;11.98;;
63778;SDS011;49923;55.970;37.516;2022-07-09T02:06:45;21.13;;;12.90;;
63778;SDS011;49923;55.970;37.516;2022-07-09T02:09:11;21.30;;;12.48;;
63778;SDS011;49923;55.970;37.516;2022-07-09T02:11:37;18.95;;;12.90;;
63778;SDS011;49923;55.970;37.516;2022-07-09T02:14:03;17.50;;;12.73;;
63778;SDS011;49923;55.970;37.516;2022-07-09T02:16:29;26.42;;;12.25;;
63778;SDS011;49923;55.970;37.516;2022-07-09T02:18:56;22.15;;;12.75;;
63778;SDS011;49923;55.970;37.516;2022-07-09T02:21:22;19.77;;;12.27;;
63778;SDS011;49923;55.970;37.516;2022-07-09T02:23:49;19.90;;;12.50;;
63778;SDS011;49923;55.970;37.516;2022-07-09T02:26:15;18.48;;;13.07;;
63778;SDS011;49923;55.970;37.516;2022-07-09T02:28:41;19.85;;;13.00;;
63778;SDS011;49923;55.970;37.516;2022-07-09T02:31:07;15.95;;;12.27;;
63778;SDS011;49923;55.970;37.516;2022-07-09T02:33:33;17.55;;;12.75;;
63778;SDS011;49923;55.970;37.516;2022-07-09T02:35:59;17.98;;;12.93;;
63778;SDS011;49923;55.970;37.516;2022-07-09T02:38:25;14.45;;;12.88;;
63778;SDS011;49923;55.970;37.516;2022-07-09T02:40:54;15.68;;;13.02;;
63778;SDS011;49923;55.970;37.516;2022-07-09T02:43:20;18.77;;;13.77;;
63778;SDS011;49923;55.970;37.516;2022-07-09T02:45:46;20.60;;;13.27;;
63778;SDS011;49923;55.970;37.516;2022-07-09T02:48:12;20.88;;;14.25;;
63778;SDS011;49923;55.970;37.516;2022-07-09T02:50:38;18.98;;;14.23;;
63778;SDS011;49923;55.970;37.516;2022-07-09T02:53:05;18.10;;;13.95;;
63778;SDS011;49923;55.970;37.516;2022-07-09T02:55:31;19.65;;;15.80;;
63778;SDS011;49923;55.970;37.516;2022-07-09T02:57:56;19.58;;;14.40;;
63778;SDS011;49923;55.970;37.516;2022-07-09T03:00:22;21.73;;;15.35;;
63778;SDS011;49923;55.970;37.516;2022-07-09T03:02:48;20.17;;;14.68;;
63778;SDS011;49923;55.970;37.516;2022-07-09T03:05:15;18.17;;;15.30;;
63778;SDS011;49923;55.970;37.516;2022-07-09T03:07:41;20.10;;;15.23;;
63778;SDS011;49923;55.970;37.516;2022-07-09T03:10:07;20.20;;;14.30;;
63778;SDS011;49923;55.970;37.516;2022-07-09T03:12:34;19.20;;;14.18;;
63778;SDS011;49923;55.970;37.516;2022-07-09T03:15:00;23.60;;;15.10;;
63778;SDS011;49923;55.970;37.516;2022-07-09T03:17:26;18.98;;;14.82;;
63778;SDS011;49923;55.970;37.516;2022-07-09T03:19:52;18.85;;;14.52;;
63778;SDS011;49923;55.970;37.516;2022-07-09T03:22:18;49.97;;;43.90;;
63778;SDS011;49923;55.970;37.516;2022-07-09T03:24:44;39.60;;;34.67;;
63778;SDS011;49923;55.970;37.516;2022-07-09T03:27:10;26.15;;;21.25;;
63778;SDS011;49923;55.970;37.516;2022-07-09T03:29:36;20.73;;;16.73;;
63778;SDS011;49923;55.970;37.516;2022-07-09T03:32:02;18.33;;;15.93;;
63778;SDS011;49923;55.970;37.516;2022-07-09T03:34:29;23.60;;;16.60;;
63778;SDS011;49923;55.970;37.516;2022-07-09T03:36:55;19.80;;;15.63;;
63778;SDS011;49923;55.970;37.516;2022-07-09T03:39:21;21.67;;;15.02;;
63778;SDS011;49923;55.970;37.516;2022-07-09T03:41:47;23.35;;;16.00;;
63778;SDS011;49923;55.970;37.516;2022-07-09T03:44:13;19.27;;;14.98;;
63778;SDS011;49923;55.970;37.516;2022-07-09T03:46:39;20.90;;;15.73;;
63778;SDS011;49923;55.970;37.516;2022-07-09T03:49:05;18.20;;;15.20;;
63778;SDS011;49923;55.970;37.516;2022-07-09T03:51:31;21.15;;;15.02;;
63778;SDS011;49923;55.970;37.516;2022-07-09T03:53:56;21.70;;;16.05;;
63778;SDS011;49923;55.970;37.516;2022-07-09T03:56:22;20.70;;;15.63;;
63778;SDS011;49923;55.970;37.516;2022-07-09T03:58:48;19.67;;;14.73;;
63778;SDS011;49923;55.970;37.516;2022-07-09T04:01:14;20.83;;;15.50;;
63778;SDS011;49923;55.970;37.516;2022-07-09T04:03:40;19.92;;;15.75;;
63778;SDS011;49923;55.970;37.516;2022-07-09T04:06:06;22.25;;;15.85;;
63778;SDS011;49923;55.970;37.516;2022-07-09T04:08:32;20.02;;;16.08;;
63778;SDS011;49923;55.970;37.516;2022-07-09T04:10:58;16.40;;;14.60;;
63778;SDS011;49923;55.970;37.516;2022-07-09T04:13:24;18.58;;;14.70;;
63778;SDS011;49923;55.970;37.516;2022-07-09T04:15:50;17.02;;;13.93;;
63778;SDS011;49923;55.970;37.516;2022-07-09T04:18:16;17.77;;;13.57;;
63778;SDS011;49923;55.970;37.516;2022-07-09T04:20:42;15.88;;;13.30;;
63778;SDS011;49923;55.970;37.516;2022-07-09T04:23:10;17.05;;;14.02;;
63778;SDS011;49923;55.970;37.516;2022-07-09T04:25:36;17.10;;;12.73;;
63778;SDS011;49923;55.970;37.516;2022-07-09T04:28:02;15.30;;;13.43;;
63778;SDS011;49923;55.970;37.516;2022-07-09T04:30:30;17.60;;;13.07;;
63778;SDS011;49923;55.970;37.516;2022-07-09T04:32:57;18.00;;;12.90;;
63778;SDS011;49923;55.970;37.516;2022-07-09T04:35:23;16.77;;;13.05;;
63778;SDS011;49923;55.970;37.516;2022-07-09T04:37:49;15.70;;;11.82;;
63778;SDS011;49923;55.970;37.516;2022-07-09T04:40:16;17.10;;;12.20;;
63778;SDS011;49923;55.970;37.516;2022-07-09T04:42:42;16.25;;;11.90;;
63778;SDS011;49923;55.970;37.516;2022-07-09T04:45:09;15.93;;;12.35;;
63778;SDS011;49923;55.970;37.516;2022-07-09T04:47:35;14.60;;;11.30;;
63778;SDS011;49923;55.970;37.516;2022-07-09T04:50:01;15.52;;;12.20;;
63778;SDS011;49923;55.970;37.516;2022-07-09T04:52:29;15.73;;;11.93;;
63778;SDS011;49923;55.970;37.516;2022-07-09T04:54:55;16.10;;;11.95;;
63778;SDS011;49923;55.970;37.516;2022-07-09T04:57:21;13.75;;;11.90;;
63778;SDS011;49923;55.970;37.516;2022-07-09T04:59:49;17.10;;;10.73;;
63778;SDS011;49923;55.970;37.516;2022-07-09T05:02:15;16.80;;;10.88;;
63778;SDS011;49923;55.970;37.516;2022-07-09T05:04:42;21.63;;;11.43;;
63778;SDS011;49923;55.970;37.516;2022-07-09T05:07:07;19.25;;;11.55;;
63778;SDS011;49923;55.970;37.516;2022-07-09T05:09:33;21.50;;;11.00;;
63778;SDS011;49923;55.970;37.516;2022-07-09T05:11:59;16.15;;;11.45;;
63778;SDS011;49923;55.970;37.516;2022-07-09T05:14:25;17.02;;;11.85;;
63778;SDS011;49923;55.970;37.516;2022-07-09T05:16:51;18.98;;;12.13;;
63778;SDS011;49923;55.970;37.516;2022-07-09T05:19:17;15.55;;;12.23;;
63778;SDS011;49923;55.970;37.516;2022-07-09T05:21:43;16.98;;;11.52;;
63778;SDS011;49923;55.970;37.516;2022-07-09T05:24:09;14.63;;;12.07;;
63778;SDS011;49923;55.970;37.516;2022-07-09T05:26:35;16.83;;;12.10;;
63778;SDS011;49923;55.970;37.516;2022-07-09T05:29:02;14.70;;;11.15;;
63778;SDS011;49923;55.970;37.516;2022-07-09T05:31:29;17.92;;;12.02;;
63778;SDS011;49923;55.970;37.516;2022-07-09T05:33:55;16.50;;;10.93;;
63778;SDS011;49923;55.970;37.516;2022-07-09T05:36:21;17.63;;;11.25;;
63778;SDS011;49923;55.970;37.516;2022-07-09T05:38:47;17.50;;;10.57;;
63778;SDS011;49923;55.970;37.516;2022-07-09T05:41:13;13.45;;;8.63;;
63778;SDS011;49923;55.970;37.516;2022-07-09T05:43:40;15.20;;;9.25;;
63778;SDS011;49923;55.970;37.516;2022-07-09T05:46:07;14.10;;;9.45;;
63778;SDS011;49923;55.970;37.516;2022-07-09T05:48:33;11.93;;;9.25;;
63778;SDS011;49923;55.970;37.516;2022-07-09T05:50:59;13.77;;;8.88;;
63778;SDS011;49923;55.970;37.516;2022-07-09T05:53:25;15.38;;;9.48;;
63778;SDS011;49923;55.970;37.516;2022-07-09T05:55:51;13.30;;;9.52;;
63778;SDS011;49923;55.970;37.516;2022-07-09T05:58:16;12.27;;;7.55;;
63778;SDS011;49923;55.970;37.516;2022-07-09T06:00:42;6.30;;;5.43;;
63778;SDS011;49923;55.970;37.516;2022-07-09T06:03:08;8.32;;;5.82;;
63778;SDS011;49923;55.970;37.516;2022-07-09T06:05:34;12.40;;;6.78;;
63778;SDS011;49923;55.970;37.516;2022-07-09T06:08:00;9.38;;;5.65;;
63778;SDS011;49923;55.970;37.516;2022-07-09T06:10:26;8.13;;;5.55;;
63778;SDS011;49923;55.970;37.516;2022-07-09T06:12:52;9.77;;;5.88;;
63778;SDS011;49923;55.970;37.516;2022-07-09T06:15:18;9.63;;;6.30;;
63778;SDS011;49923;55.970;37.516;2022-07-09T06:17:44;7.40;;;6.35;;
63778;SDS011;49923;55.970;37.516;2022-07-09T06:20:10;10.48;;;7.20;;
63778;SDS011;49923;55.970;37.516;2022-07-09T06:22:36;9.40;;;6.57;;
63778;SDS011;49923;55.970;37.516;2022-07-09T06:25:04;8.57;;;7.15;;
63778;SDS011;49923;55.970;37.516;2022-07-09T06:27:31;9.98;;;6.63;;
63778;SDS011;49923;55.970;37.516;2022-07-09T06:29:57;9.77;;;6.53;;
63778;SDS011;49923;55.970;37.516;2022-07-09T06:32:23;9.23;;;7.30;;
63778;SDS011;49923;55.970;37.516;2022-07-09T06:34:49;9.48;;;6.60;;
63778;SDS011;49923;55.970;37.516;2022-07-09T06:37:15;7.75;;;6.45;;
63778;SDS011;49923;55.970;37.516;2022-07-09T06:39:41;8.73;;;6.28;;
63778;SDS011;49923;55.970;37.516;2022-07-09T06:42:17;8.25;;;5.50;;
63778;SDS011;49923;55.970;37.516;2022-07-09T06:44:43;8.38;;;5.57;;
63778;SDS011;49923;55.970;37.516;2022-07-09T06:47:10;10.43;;;5.85;;
63778;SDS011;49923;55.970;37.516;2022-07-09T06:49:37;7.80;;;5.55;;
63778;SDS011;49923;55.970;37.516;2022-07-09T06:52:03;6.50;;;5.03;;
63778;SDS011;49923;55.970;37.516;2022-07-09T06:54:29;8.45;;;5.55;;
63778;SDS011;49923;55.970;37.516;2022-07-09T06:56:55;10.25;;;7.35;;
63778;SDS011;49923;55.970;37.516;2022-07-09T06:59:22;10.20;;;6.43;;
63778;SDS011;49923;55.970;37.516;2022-07-09T07:01:51;11.88;;;6.80;;
63778;SDS011;49923;55.970;37.516;2022-07-09T07:04:17;9.63;;;6.55;;
63778;SDS011;49923;55.970;37.516;2022-07-09T07:06:45;7.45;;;5.50;;
63778;SDS011;49923;55.970;37.516;2022-07-09T07:09:14;9.20;;;6.18;;
63778;SDS011;49923;55.970;37.516;2022-07-09T07:11:44;8.65;;;6.18;;
63778;SDS011;49923;55.970;37.516;2022-07-09T07:14:11;9.23;;;5.82;;
63778;SDS011;49923;55.970;37.516;2022-07-09T07:16:37;9.50;;;5.82;;
63778;SDS011;49923;55.970;37.516;2022-07-09T07:19:03;6.63;;;5.38;;
63778;SDS011;49923;55.970;37.516;2022-07-09T07:21:29;9.88;;;5.97;;
63778;SDS011;49923;55.970;37.516;2022-07-09T07:23:55;7.15;;;5.70;;
63778;SDS011;49923;55.970;37.516;2022-07-09T07:26:21;7.82;;;6.45;;
63778;SDS011;49923;55.970;37.516;2022-07-09T07:28:46;8.10;;;6.50;;
63778;SDS011;49923;55.970;37.516;2022-07-09T07:31:14;9.82;;;6.55;;
63778;SDS011;49923;55.970;37.516;2022-07-09T07:33:40;12.80;;;6.28;;
63778;SDS011;49923;55.970;37.516;2022-07-09T07:36:07;10.70;;;6.65;;
63778;SDS011;49923;55.970;37.516;2022-07-09T07:38:34;10.10;;;6.10;;
63778;SDS011;49923;55.970;37.516;2022-07-09T07:41:00;8.77;;;6.63;;
63778;SDS011;49923;55.970;37.516;2022-07-09T07:43:26;11.43;;;6.15;;
63778;SDS011;49923;55.970;37.516;2022-07-09T07:45:52;7.55;;;6.40;;
63778;SDS011;49923;55.970;37.516;2022-07-09T07:48:18;8.80;;;5.72;;
63778;SDS011;49923;55.970;37.516;2022-07-09T07:50:44;10.30;;;6.45;;
63778;SDS011;49923;55.970;37.516;2022-07-09T07:53:10;9.93;;;6.13;;
63778;SDS011;49923;55.970;37.516;2022-07-09T07:55:36;7.15;;;5.80;;
63778;SDS011;49923;55.970;37.516;2022-07-09T07:58:02;9.30;;;6.45;;
63778;SDS011;49923;55.970;37.516;2022-07-09T08:00:28;7.75;;;6.20;;
63778;SDS011;49923;55.970;37.516;2022-07-09T08:02:54;9.43;;;6.30;;
63778;SDS011;49923;55.970;37.516;2022-07-09T08:05:20;8.23;;;5.97;;
63778;SDS011;49923;55.970;37.516;2022-07-09T08:07:46;11.00;;;6.70;;
63778;SDS011;49923;55.970;37.516;2022-07-09T08:10:12;13.15;;;8.15;;
63778;SDS011;49923;55.970;37.516;2022-07-09T08:12:38;11.00;;;8.27;;
63778;SDS011;49923;55.970;37.516;2022-07-09T08:15:04;11.20;;;7.38;;
63778;SDS011;49923;55.970;37.516;2022-07-09T08:17:30;13.77;;;7.53;;
63778;SDS011;49923;55.970;37.516;2022-07-09T08:19:56;10.70;;;6.82;;
63778;SDS011;49923;55.970;37.516;2022-07-09T08:22:22;10.07;;;7.30;;
63778;SDS011;49923;55.970;37.516;2022-07-09T08:24:48;19.27;;;7.53;;
63778;SDS011;49923;55.970;37.516;2022-07-09T08:27:14;12.77;;;8.00;;
63778;SDS011;49923;55.970;37.516;2022-07-09T08:29:40;14.45;;;7.80;;
63778;SDS011;49923;55.970;37.516;2022-07-09T08:32:06;15.20;;;7.28;;
63778;SDS011;49923;55.970;37.516;2022-07-09T08:34:32;10.93;;;7.18;;
63778;SDS011;49923;55.970;37.516;2022-07-09T08:36:58;15.68;;;9.00;;
63778;SDS011;49923;55.970;37.516;2022-07-09T08:39:24;15.57;;;8.65;;
63778;SDS011;49923;55.970;37.516;2022-07-09T08:41:50;12.90;;;6.90;;
63778;SDS011;49923;55.970;37.516;2022-07-09T08:44:17;12.73;;;7.22;;
63778;SDS011;49923;55.970;37.516;2022-07-09T08:46:45;10.95;;;7.13;;
63778;SDS011;49923;55.970;37.516;2022-07-09T08:49:11;14.23;;;7.20;;
63778;SDS011;49923;55.970;37.516;2022-07-09T08:51:41;9.05;;;6.63;;
63778;SDS011;49923;55.970;37.516;2022-07-09T08:54:08;19.25;;;12.27;;
63778;SDS011;49923;55.970;37.516;2022-07-09T08:56:34;13.27;;;7.78;;
63778;SDS011;49923;55.970;37.516;2022-07-09T08:59:01;13.27;;;6.93;;
63778;SDS011;49923;55.970;37.516;2022-07-09T09:01:27;9.38;;;6.32;;
63778;SDS011;49923;55.970;37.516;2022-07-09T09:03:54;13.95;;;7.63;;
63778;SDS011;49923;55.970;37.516;2022-07-09T09:06:21;14.35;;;7.63;;
63778;SDS011;49923;55.970;37.516;2022-07-09T09:08:48;12.60;;;7.28;;
63778;SDS011;49923;55.970;37.516;2022-07-09T09:11:21;11.23;;;6.22;;
63778;SDS011;49923;55.970;37.516;2022-07-09T09:13:50;11.25;;;7.35;;
63778;SDS011;49923;55.970;37.516;2022-07-09T09:16:17;9.15;;;6.65;;
63778;SDS011;49923;55.970;37.516;2022-07-09T09:18:48;8.30;;;6.68;;
63778;SDS011;49923;55.970;37.516;2022-07-09T09:21:15;12.82;;;6.30;;
63778;SDS011;49923;55.970;37.516;2022-07-09T09:23:47;12.50;;;6.85;;
63778;SDS011;49923;55.970;37.516;2022-07-09T09:29:01;13.10;;;6.93;;
63778;SDS011;49923;55.970;37.516;2022-07-09T09:31:33;16.63;;;7.18;;
63778;SDS011;49923;55.970;37.516;2022-07-09T09:36:37;18.25;;;7.88;;
63778;SDS011;49923;55.970;37.516;2022-07-09T09:39:11;13.20;;;6.57;;
63778;SDS011;49923;55.970;37.516;2022-07-09T09:41:48;13.95;;;7.40;;
63778;SDS011;49923;55.970;37.516;2022-07-09T09:44:20;11.48;;;7.88;;
63778;SDS011;49923;55.970;37.516;2022-07-09T09:46:55;18.83;;;8.90;;
63778;SDS011;49923;55.970;37.516;2022-07-09T09:49:22;18.38;;;9.32;;
63778;SDS011;49923;55.970;37.516;2022-07-09T09:52:07;15.15;;;10.10;;
63778;SDS011;49923;55.970;37.516;2022-07-09T09:54:35;13.80;;;9.63;;
63778;SDS011;49923;55.970;37.516;2022-07-09T09:57:08;12.15;;;10.02;;
63778;SDS011;49923;55.970;37.516;2022-07-09T09:59:36;19.30;;;11.13;;
63778;SDS011;49923;55.970;37.516;2022-07-09T10:02:05;14.95;;;11.10;;
63778;SDS011;49923;55.970;37.516;2022-07-09T10:04:38;15.70;;;10.93;;
63778;SDS011;49923;55.970;37.516;2022-07-09T10:07:05;19.13;;;12.30;;
63778;SDS011;49923;55.970;37.516;2022-07-09T10:09:32;14.00;;;10.85;;
63778;SDS011;49923;55.970;37.516;2022-07-09T10:11:58;13.48;;;10.77;;
63778;SDS011;49923;55.970;37.516;2022-07-09T10:16:51;16.38;;;11.20;;
63778;SDS011;49923;55.970;37.516;2022-07-09T10:19:28;17.08;;;11.45;;
63778;SDS011;49923;55.970;37.516;2022-07-09T10:21:59;17.48;;;11.88;;
63778;SDS011;49923;55.970;37.516;2022-07-09T10:26:52;15.63;;;11.82;;
63778;SDS011;49923;55.970;37.516;2022-07-09T10:29:34;22.23;;;13.07;;
63778;SDS011;49923;55.970;37.516;2022-07-09T10:32:02;21.63;;;13.80;;
63778;SDS011;49923;55.970;37.516;2022-07-09T10:37:03;17.02;;;13.13;;
63778;SDS011;49923;55.970;37.516;2022-07-09T10:39:30;17.77;;;12.52;;
63778;SDS011;49923;55.970;37.516;2022-07-09T10:42:00;18.65;;;12.40;;
63778;SDS011;49923;55.970;37.516;2022-07-09T10:44:33;13.45;;;11.18;;
63778;SDS011;49923;55.970;37.516;2022-07-09T10:47:00;14.10;;;11.20;;
63778;SDS011;49923;55.970;37.516;2022-07-09T10:49:26;18.23;;;12.75;;
63778;SDS011;49923;55.970;37.516;2022-07-09T10:51:59;20.42;;;13.10;;
63778;SDS011;49923;55.970;37.516;2022-07-09T10:54:25;18.13;;;12.65;;
63778;SDS011;49923;55.970;37.516;2022-07-09T10:56:52;20.15;;;12.20;;
63778;SDS011;49923;55.970;37.516;2022-07-09T10:59:20;16.98;;;12.48;;
63778;SDS011;49923;55.970;37.516;2022-07-09T11:01:47;19.40;;;12.02;;
63778;SDS011;49923;55.970;37.516;2022-07-09T11:04:34;14.63;;;11.98;;
63778;SDS011;49923;55.970;37.516;2022-07-09T11:07:00;23.55;;;12.68;;
63778;SDS011;49923;55.970;37.516;2022-07-09T11:09:27;17.10;;;11.05;;
63778;SDS011;49923;55.970;37.516;2022-07-09T11:11:56;17.80;;;11.48;;
63778;SDS011;49923;55.970;37.516;2022-07-09T11:14:22;13.77;;;10.00;;
63778;SDS011;49923;55.970;37.516;2022-07-09T11:16:55;13.82;;;10.82;;
63778;SDS011;49923;55.970;37.516;2022-07-09T11:19:22;19.05;;;10.55;;
63778;SDS011;49923;55.970;37.516;2022-07-09T11:21:48;15.35;;;9.35;;
63778;SDS011;49923;55.970;37.516;2022-07-09T11:24:18;17.83;;;11.45;;
63778;SDS011;49923;55.970;37.516;2022-07-09T11:26:47;15.15;;;11.90;;
63778;SDS011;49923;55.970;37.516;2022-07-09T11:29:13;16.10;;;11.60;;
63778;SDS011;49923;55.970;37.516;2022-07-09T11:31:51;17.38;;;10.82;;
63778;SDS011;49923;55.970;37.516;2022-07-09T11:34:18;12.40;;;9.02;;
63778;SDS011;49923;55.970;37.516;2022-07-09T11:36:50;16.92;;;9.63;;
63778;SDS011;49923;55.970;37.516;2022-07-09T11:39:32;14.70;;;10.50;;
63778;SDS011;49923;55.970;37.516;2022-07-09T11:42:01;11.68;;;7.75;;
63778;SDS011;49923;55.970;37.516;2022-07-09T11:44:30;13.73;;;6.57;;
63778;SDS011;49923;55.970;37.516;2022-07-09T11:47:05;8.88;;;6.55;;
63778;SDS011;49923;55.970;37.516;2022-07-09T11:49:38;13.98;;;8.52;;
63778;SDS011;49923;55.970;37.516;2022-07-09T11:52:26;9.10;;;7.85;;
63778;SDS011;49923;55.970;37.516;2022-07-09T11:54:55;10.45;;;8.10;;
63778;SDS011;49923;55.970;37.516;2022-07-09T11:57:24;10.25;;;7.07;;
63778;SDS011;49923;55.970;37.516;2022-07-09T11:59:51;9.25;;;7.10;;
63778;SDS011;49923;55.970;37.516;2022-07-09T12:02:33;9.35;;;6.03;;
63778;SDS011;49923;55.970;37.516;2022-07-09T12:05:02;9.10;;;7.18;;
63778;SDS011;49923;55.970;37.516;2022-07-09T12:07:30;11.48;;;6.88;;
63778;SDS011;49923;55.970;37.516;2022-07-09T12:09:57;8.65;;;7.75;;
63778;SDS011;49923;55.970;37.516;2022-07-09T12:12:27;11.50;;;7.88;;
63778;SDS011;49923;55.970;37.516;2022-07-09T12:14:53;11.73;;;8.80;;
63778;SDS011;49923;55.970;37.516;2022-07-09T12:17:22;10.40;;;9.30;;
63778;SDS011;49923;55.970;37.516;2022-07-09T12:19:50;11.70;;;9.48;;
63778;SDS011;49923;55.970;37.516;2022-07-09T12:22:17;12.48;;;10.70;;
63778;SDS011;49923;55.970;37.516;2022-07-09T12:24:43;17.65;;;10.82;;
63778;SDS011;49923;55.970;37.516;2022-07-09T12:27:09;18.08;;;13.23;;
63778;SDS011;49923;55.970;37.516;2022-07-09T12:29:35;11.25;;;8.98;;
63778;SDS011;49923;55.970;37.516;2022-07-09T12:32:01;16.02;;;9.35;;
63778;SDS011;49923;55.970;37.516;2022-07-09T12:34:28;11.57;;;9.73;;
63778;SDS011;49923;55.970;37.516;2022-07-09T12:36:54;14.85;;;10.65;;
63778;SDS011;49923;55.970;37.516;2022-07-09T12:39:20;17.95;;;11.02;;
63778;SDS011;49923;55.970;37.516;2022-07-09T12:41:46;15.98;;;11.65;;
63778;SDS011;49923;55.970;37.516;2022-07-09T12:44:12;13.50;;;10.75;;
63778;SDS011;49923;55.970;37.516;2022-07-09T12:46:38;13.60;;;11.02;;
63778;SDS011;49923;55.970;37.516;2022-07-09T12:49:05;13.50;;;11.02;;
63778;SDS011;49923;55.970;37.516;2022-07-09T12:51:31;16.52;;;10.75;;
63778;SDS011;49923;55.970;37.516;2022-07-09T12:53:56;15.35;;;11.18;;
63778;SDS011;49923;55.970;37.516;2022-07-09T12:56:22;14.57;;;11.32;;
63778;SDS011;49923;55.970;37.516;2022-07-09T12:58:48;18.90;;;15.50;;
63778;SDS011;49923;55.970;37.516;2022-07-09T13:01:14;18.58;;;13.77;;
63778;SDS011;49923;55.970;37.516;2022-07-09T13:03:40;15.52;;;12.18;;
63778;SDS011;49923;55.970;37.516;2022-07-09T13:06:07;17.83;;;13.68;;
63778;SDS011;49923;55.970;37.516;2022-07-09T13:08:52;16.27;;;11.60;;
63778;SDS011;49923;55.970;37.516;2022-07-09T13:11:17;13.55;;;11.88;;
63778;SDS011;49923;55.970;37.516;2022-07-09T13:13:43;22.35;;;17.30;;
63778;SDS011;49923;55.970;37.516;2022-07-09T13:16:09;14.73;;;12.63;;
63778;SDS011;49923;55.970;37.516;2022-07-09T13:18:35;18.17;;;12.93;;
63778;SDS011;49923;55.970;37.516;2022-07-09T13:21:01;15.70;;;12.45;;
63778;SDS011;49923;55.970;37.516;2022-07-09T13:23:27;16.05;;;12.32;;
63778;SDS011;49923;55.970;37.516;2022-07-09T13:25:53;14.70;;;12.65;;
63778;SDS011;49923;55.970;37.516;2022-07-09T13:28:19;15.95;;;13.00;;
63778;SDS011;49923;55.970;37.516;2022-07-09T13:30:45;14.18;;;11.32;;
63778;SDS011;49923;55.970;37.516;2022-07-09T13:33:11;14.98;;;12.25;;
63778;SDS011;49923;55.970;37.516;2022-07-09T13:35:36;13.60;;;11.65;;
63778;SDS011;49923;55.970;37.516;2022-07-09T13:38:02;15.80;;;11.93;;
63778;SDS011;49923;55.970;37.516;2022-07-09T13:40:28;13.05;;;10.85;;
63778;SDS011;49923;55.970;37.516;2022-07-09T13:42:54;12.02;;;10.48;;
63778;SDS011;49923;55.970;37.516;2022-07-09T13:45:20;11.48;;;9.57;;
63778;SDS011;49923;55.970;37.516;2022-07-09T13:47:46;13.63;;;9.93;;
63778;SDS011;49923;55.970;37.516;2022-07-09T13:50:12;12.65;;;10.32;;
63778;SDS011;49923;55.970;37.516;2022-07-09T13:52:38;16.48;;;10.88;;
63778;SDS011;49923;55.970;37.516;2022-07-09T13:55:04;15.02;;;10.35;;
63778;SDS011;49923;55.970;37.516;2022-07-09T13:57:30;14.32;;;10.07;;
63778;SDS011;49923;55.970;37.516;2022-07-09T13:59:57;13.45;;;10.38;;
63778;SDS011;49923;55.970;37.516;2022-07-09T14:02:23;12.65;;;10.55;;
63778;SDS011;49923;55.970;37.516;2022-07-09T14:04:49;13.02;;;10.27;;
63778;SDS011;49923;55.970;37.516;2022-07-09T14:07:15;12.20;;;10.32;;
63778;SDS011;49923;55.970;37.516;2022-07-09T14:09:41;14.88;;;10.95;;
63778;SDS011;49923;55.970;37.516;2022-07-09T14:12:07;13.43;;;10.90;;
63778;SDS011;49923;55.970;37.516;2022-07-09T14:14:33;13.20;;;10.60;;
63778;SDS011;49923;55.970;37.516;2022-07-09T14:17:00;14.43;;;10.90;;
63778;SDS011;49923;55.970;37.516;2022-07-09T14:19:26;12.50;;;10.82;;
63778;SDS011;49923;55.970;37.516;2022-07-09T14:21:52;14.50;;;12.23;;
63778;SDS011;49923;55.970;37.516;2022-07-09T14:24:19;17.00;;;12.88;;
63778;SDS011;49923;55.970;37.516;2022-07-09T14:26:45;15.32;;;12.57;;
63778;SDS011;49923;55.970;37.516;2022-07-09T14:29:13;14.48;;;12.00;;